SiktMolnbas
>≥ 10km≥ 10km ≥ 2000ft≥ 2000ft
< 10km< 10km < 2000ft< 2000ft
< 8km< 8km < 1500ft< 1500ft
< 5km< 5km < 1000ft< 1000ft
< 3km< 3km < 500ft< 500ft

Nytt 18 jan 2017:

Nytt 17 jan 2017:

ESNQ (09:20 UTC)

Kiruna flygplats

METAR

ESNQ 170920Z 24011KT 200V270 9999 FEW039 BKN066 13/06 Q1014=

TAF

ESNQ 170830Z 1709/1717 24010KT 9999 FEW035 BECMG 1716/1717 VRB02KT=

ESNG (09:20 UTC)

Gällivare (Kavaheden), Lapland Airport

METAR

ESNG 170920Z 28009KT 230V310 CAVOK 15/06 Q1015=

TAF

ESNG 170830Z 1709/1711 24008KT CAVOK=

ESPA (09:20 UTC)

Luleå Airport (Kallax)

METAR

ESPA 170920Z 23009KT CAVOK 16/09 Q1018=

TAF

ESPA 170810Z 1709/1718 25010KT CAVOK BECMG 1711/1713 19010KT RMK MIL=

ESNL (09:20 UTC)

Lycksele flygplats

METAR

ESNL 170920Z AUTO 17006KT 130V200 9999 FEW053/// 18/06 Q1018=

TAF

Ingen TAF hittades.

ESNU (09:20 UTC)

Umeå City Airport

METAR

ESNU 170920Z 16007KT CAVOK 17/11 Q1019=

TAF

ESNU 170830Z 1709/1718 28003KT CAVOK BECMG 1709/1711 15010KT=

ESNO (09:20 UTC)

Örnsköldsvik flygplats

METAR

ESNO 170920Z AUTO 15007KT 9999 NCD 17/09 Q1019=

TAF

ESNO 170830Z 1709/1718 27002KT CAVOK BECMG 1709/1711 14010KT=

ESNK (09:20 UTC)

Kramfors-Sollefteå flygplats

METAR

ESNK 170920Z AUTO 18008KT 9999 NCD 17/12 Q1018=

TAF

ESNK 170830Z 1709/1717 30003KT CAVOK BECMG 1709/1711 16010KT=

ESNN (09:20 UTC)

Sundsvall-Härnösands flygplats (Midlanda)

METAR

ESNN 170920Z 12008KT 090V150 CAVOK 17/11 Q1019=

TAF

BR

ESNN 170830Z 1709/1718 31006KT CAVOK BECMG 1709/1711 15010KT PROB40 1712/1716 BKN012 PROB40 1716/1718 2000 BR BKN004=

ESNZ (09:20 UTC)

Åre Östersund Airport (Frösön)

METAR

ESNZ 170920Z 17011KT CAVOK 16/09 Q1016=

TAF

ESNZ 170830Z 1709/1718 16012KT CAVOK=

ESNS (09:20 UTC)

Skellefteå flygplats

METAR

ESNS 170920Z 25004KT 190V290 CAVOK 18/08 Q1019=

TAF

ESNS 170830Z 1709/1718 23006KT CAVOK PROB40 1713/1718 16010KT=

ESGT (09:20 UTC)

Trollhättan-Vänersborgs flygplats (Malöga flygplats)

METAR

ESGT 170920Z 17010KT 9999 BKN028 19/13 Q1018=

TAF

ESGT 170830Z 1709/1718 16008KT CAVOK=

ESGG (09:20 UTC)

Göteborg-Landvetter flygplats

METAR

ESGG 170920Z 19009KT CAVOK 18/12 Q1018=

TAF

RABR

ESGG 170530Z 1706/1806 14006KT CAVOK BECMG 1718/1720 RA TEMPO 1720/1802 4000 -RA BR BKN006 BECMG 1800/1802 NSW TEMPO 1802/1806 2000 BR BKN008=

ESMT (08:50 UTC)

Halmstads flygplats

METAR

ESMT 170850Z 14007KT 110V180 CAVOK 19/12 Q1019=

TAF

ESMT 170755Z 1709/1718 14012KT CAVOK=

ESTA (09:20 UTC)

Ängelholm-Helsingborg flygplats

METAR

ESTA 170920Z 12008KT FEW036 20/13 Q1019=

TAF

ESTA 170755Z 1709/1718 14012KT CAVOK=

ESTL (09:20 UTC)

Ljungbyheds flygplats

METAR

ESTL 170920Z 13008KT 9999 FEW034 20/13 Q1019=

TAF

ESTL 170755Z 1709/1715 14012KT CAVOK=

ESMS (09:20 UTC)

Malmö Airport

METAR

ESMS 170920Z 14011KT CAVOK 20/14 Q1019=

TAF

TSRABRCB

ESMS 170503Z 1706/1806 15003KT 9999 SCT030 BECMG 1707/1710 15012KT BECMG 1717/1719 4000 RA BKN012 PROB40 1717/1723 TSRA TEMPO 1719/1723 8000 SCT015CB BKN020 BECMG 1723/1801 22010KT 9999 NSW BKN020 TEMPO 1801/1806 4000 BR BKN006=

ESMK (09:20 UTC)

Kristianstad Airport

METAR

ESMK 170920Z 12006KT 090V160 CAVOK 21/12 Q1020=

TAF

ESMK 170755Z 1709/1718 14012KT CAVOK=

ESDF (09:20 UTC)

Ronneby flygplats

METAR

ESDF 170920Z 18004KT 120V240 9999 FEW033 20/13 Q1020=

TAF

ESDF 170830Z 1709/1718 21005KT CAVOK RMK MIL=

ESMQ (09:20 UTC)

Kalmar Airport

METAR

ESMQ 170920Z 08003KT 030V140 CAVOK 20/11 Q1019=

TAF

ESMQ 170830Z 1709/1718 03004KT CAVOK BECMG 1712/1714 16010KT=

ESMX (09:20 UTC)

Växjö, Smaland Airport

METAR

ESMX 170920Z VRB04KT CAVOK 19/06 Q1020=

TAF

ESMX 170830Z 1709/1718 18005KT 9999 SCT030=

ESGJ (09:20 UTC)

Jönköping Airport

METAR

ESGJ 170920Z 16007KT 130V190 CAVOK 18/10 Q1019=

TAF

ESGJ CCA 170847Z 1709/1718 17008KT 9999 SCT030=

ESSA (09:20 UTC)

Stockholm-Arlanda flygplats

METAR

ESSA 170920Z 23006KT 190V260 CAVOK 20/12 Q1018 NOSIG=

TAF

ESSA 170530Z 1706/1806 20004KT CAVOK=

ESSB (09:20 UTC)

Stockholm-Bromma flygplats

METAR

ESSB 170920Z 22005KT 180V240 CAVOK 20/10 Q1018=

TAF

ESSB 170830Z 1709/1718 25006KT 9999 FEW040=

ESKN (09:20 UTC)

Stockholm-Skavsta flygplats

METAR

ESKN 170920Z 26004KT 150V300 9999 FEW030 19/12 Q1019=

TAF

RABRCB

ESKN 170530Z 1706/1806 27004KT CAVOK BECMG 1803/1805 RA TEMPO 1805/1806 4000 -RA BR BKN009 BKN020CB=

ESSP (09:20 UTC)

Norrköping flygplats

METAR

ESSP 170920Z 29005KT 230V330 9999 FEW035 19/10 Q1019=

TAF

ESSP 170830Z 1709/1718 26005KT CAVOK=

ESSL (09:20 UTC)

Linköping - SAAB Flygplats

METAR

ESSL 170920Z VRB03KT CAVOK 19/11 Q1019=

TAF

ESSL 170830Z 1709/1718 28004KT 9999 FEW035 RMK MIL=

ESSV (09:20 UTC)

Visby flygplats

METAR

ESSV 170920Z 33007KT 9999 FEW020 19/15 Q1019=

TAF

ESSV 170830Z 1709/1718 35005KT CAVOK TEMPO 1709/1710 9999 BKN008=

ESOW (09:20 UTC)

Stockholm-Västerås flygplats

METAR

ESOW 170920Z 21006KT 170V260 CAVOK 18/13 Q1019=

TAF

ESOW 170830Z 1709/1717 22006KT 9999 FEW030=

ESOE (09:20 UTC)

Örebro flygplats

METAR

ESOE 170920Z 25008KT 210V300 9999 FEW031 20/12 Q1019=

TAF

ESOE 170830Z 1709/1718 23006KT 9999 FEW030=

ESOK (09:20 UTC)

Karlstad Airport

METAR

ESOK 170920Z 21005KT 9999 SCT020 17/12 Q1018=

TAF

ESOK 170830Z 1709/1718 22005KT 9999 FEW025=

ESSD (09:20 UTC)

Borlänge, Dala Airport

METAR

ESSD 170920Z 17006KT 9999 FEW025 19/12 Q1018=

TAF

ESSD 170830Z 1709/1718 22003KT CAVOK=

ESGR (09:20 UTC)

Skövde flygplats

METAR

ESGR 170920Z AUTO 19006KT 9999 FEW043/// 20/10 Q1019=

TAF

Ingen TAF hittades.

ESIB (09:20 UTC)

Såtenäs

METAR

ESIB 170920Z AUTO 20011KT 160V220 9999 FEW039/// 20/13 Q1018=

TAF

Ingen TAF hittades.

ESNV (09:20 UTC)

Vilhelmina flygplats

METAR

BR

ESNV 170920Z AUTO 15005KT 9999 BR OVC043/// 14/09 Q1018=

TAF

Ingen TAF hittades.

ESST (09:20 UTC)

Torsby flygplats (Fryklanda)

METAR

ESST 170920Z AUTO 15007KT 9999 NCD 18/12 Q1018=

TAF

Ingen TAF hittades.

ESUT (09:20 UTC)

Hemavans flygplats

METAR

ESUT 170920Z AUTO 14009KT 9999 FEW027/// OVC042/// 12/08 Q1016=

TAF

Ingen TAF hittades.

ESNX (09:20 UTC)

Arvidsjaur flygplats

METAR

ESNX 170920Z 21006KT CAVOK 14/07 Q1018=

TAF

ESNX RRA 170700Z 1708/1710 25008KT CAVOK=

ESIA (09:20 UTC)

Karlsborg

METAR

ESIA 170920Z 18007KT CAVOK 18/11 Q1019=

TAF

ESIA 170817Z 1709/1714 17007KT CAVOK RMK MIL=

ESUP (09:20 UTC)

Pajala

METAR

ESUP 170920Z AUTO /////KT 9999 NCD 17/07 Q1014=

TAF

Ingen TAF hittades.

ESPE (09:20 UTC)

Vidsel

METAR

ESPE 170920Z AUTO 27007KT 9999 NCD 15/07 Q1017=

TAF

Ingen TAF hittades.

ESCM (09:20 UTC)

Uppsala

METAR

ESCM 170920Z VRB05KT CAVOK 20/12 Q1018=

TAF

ESCM 170818Z 1709/1714 18004KT CAVOK RMK MIL=

ESKM (09:20 UTC)

Mora/Siljan

METAR

ESKM 170920Z AUTO VRB02KT 9999 NCD 16/13 Q1018=

TAF

Ingen TAF hittades.

EKRN (08:50 UTC)

Bornholm Airport

METAR

EKRN 170850Z AUTO 13007KT 100V160 9999NDV NCD 20/13 Q1020=

TAF

EKRN 170823Z 1709/1718 13010KT CAVOK=

EFIV (09:20 UTC)

Ivalo Airport

METAR

EFIV 170920Z 27009KT 230V300 9999 FEW031 SCT064 15/09 Q1011=

TAF

Ingen TAF hittades.

EFKT (09:20 UTC)

Kittilä Airport

METAR

EFKT 170920Z 24011KT 230V300 9999 FEW035 17/08 Q1013=

TAF

EFKT 170533Z 1706/1710 24007KT 9999 BKN009 BECMG 1706/1707 FEW010 SCT020=

EFRO (09:20 UTC)

Rovaniemi Airport

METAR

EFRO 170920Z 24010KT 9999 FEW017 SCT025 15/11 Q1015=

TAF

EFRO 170826Z 1709/1809 22014KT 9999 SCT013 BECMG 1722/1800 14003KT=

EFKE (09:20 UTC)

Kemi-Tornio Airport

METAR

EFKE 170920Z AUTO 23010KT 190V270 CAVOK 15/10 Q1017=

TAF

EFKE 170826Z 1709/1718 22010KT CAVOK=

EFKS (09:20 UTC)

Kuusamo Airport

METAR

EFKS 170920Z AUTO 23013KT 210V270 9999 FEW030 16/09 Q1016=

TAF

EFKS 170826Z 1709/1713 25010KT 9999 FEW030=

EFOU (09:20 UTC)

Oulu Airport

METAR

EFOU 170920Z AUTO 27010KT CAVOK 17/08 Q1019=

TAF

EFOU 170826Z 1709/1809 30012KT CAVOK BECMG 1716/1718 04003KT BECMG 1806/1808 12010KT=

EFKI (09:20 UTC)

Kajaani Airport

METAR

EFKI 170920Z AUTO 27007KT 240V310 CAVOK 18/09 Q1020=

TAF

EFKI 170824Z 1709/1718 26010KT CAVOK=

EFKK (08:50 UTC)

Kokkola-Pietarsaari/Kruunupyy Airport

METAR

EFKK 170850Z 20003KT 9999 FEW029 18/08 Q1020=

TAF

EFKK 170835Z 1709/1718 33006KT CAVOK=

EFVA (09:20 UTC)

Vaasa Airport

METAR

EFVA 170920Z AUTO 19003KT 060V230 CAVOK 19/10 Q1019=

TAF

FG

EFVA 170835Z 1709/1809 06006KT CAVOK TEMPO 1723/1801 2500 BR BKN003 TEMPO 1801/1805 0450 FG OVC002=

EFKU (09:22 UTC)

Kuopio Airport

METAR

EFKU 170922Z RTD 24006KT 150V280 9999 FEW025 SCT075 20/13 Q1021=

TAF

EFKU 170824Z 1709/1809 20006KT CAVOK=

EFJY (09:20 UTC)

Jyväskylä Airport

METAR

EFJY 170920Z 15007KT 110V180 9999 FEW026 19/13 Q1020=

TAF

EFJY 170835Z 1709/1809 16005KT 9999 FEW025 BKN045=

EFTP (09:20 UTC)

Tampere-Pirkkala Airport

METAR

EFTP 170920Z 12005KT 090V180 CAVOK 20/13 Q1020=

TAF

BRCB

EFTP 170835Z 1709/1809 13007KT 9999 FEW040 BKN050 PROB30 TEMPO 1713/1715 FEW040CB PROB30 1800/1804 2000 BR BKN003 BECMG 1804/1806 2000 BR BKN003 BECMG 1806/1808 9999 BKN007=

EFPO (09:20 UTC)

Pori Airport

METAR

EFPO 170920Z AUTO 11005KT 080V150 9999 FEW052/// SCT071/// 21/13 Q1019=

TAF

EFPO 170835Z 1709/1718 10007KT 9999 FEW025 SCT050=

EFTU (09:20 UTC)

Turku Airport

METAR

EFTU 170920Z AUTO 14005KT 100V180 9999 BKN059/// BKN068/// 20/14 Q1018=

TAF

DZFGCB

EFTU 170829Z 1709/1809 12006KT CAVOK TEMPO 1712/1718 SCT030CB TEMPO 1720/1724 4000 -DZRA BKN004 TEMPO 1800/1803 0700 FG VV002=

EFHK (09:20 UTC)

Helsinki-Vantaa Airport

METAR

RA

EFHK 170920Z 04004KT 350V070 9999 -RA FEW029 SCT035 BKN095 19/16 Q1019 NOSIG=

TAF

BRCB

EFHK 170829Z 1709/1809 08004KT 9999 FEW035 BKN095 PROB30 TEMPO 1714/1718 FEW040CB BECMG 1718/1720 BKN007 TEMPO 1720/1805 3500 BR BKN004 BECMG 1805/1807 BKN015=

EFMA (09:20 UTC)

Mariehamn Airport

METAR

EFMA 170920Z AUTO 19005KT 9999 FEW026 19/15 Q1018=

TAF

EFMA 170829Z 1709/1718 32003KT CAVOK=

EKSB (08:50 UTC)

Sønderborg Airport

METAR

EKSB 170850Z 13013KT CAVOK 19/17 Q1016=

TAF

RA

EKSB 170857Z 1709/1718 14012KT CAVOK BECMG 1711/1714 9000 -RADZ BKN020 TEMPO 1714/1718 4000 RA BKN012=

EKSP (09:20 UTC)

Vojens Airport

METAR

EKSP 170920Z 12011KT 090V150 CAVOK 20/15 Q1015 NOSIG=

TAF

RABR

EKSP 170817Z 1709/1806 14012KT 9999 FEW040 BKN200 BECMG 1713/1715 3000 RA BKN008 BECMG 1715/1718 19012KT TEMPO 1715/1718 9999 -RA SCT008 BKN040 BECMG 1718/1720 6000 NSW SCT012 BKN020 TEMPO 1720/1806 1500 BR BKN004=

EKEB (08:50 UTC)

Esbjerg Airport

METAR

EKEB 170850Z AUTO 13007KT 9999NDV FEW059/// SCT100/// 19/13 Q1015=

TAF

RA

EKEB 170813Z 1709/1718 13012KT CAVOK BECMG 1710/1713 9000 -RADZ BKN020 TEMPO 1713/1718 4000 RADZ BKN012=

EKYT (08:50 UTC)

Aalborg Airport

METAR

EKYT 170850Z AUTO 15012KT 9999NDV NCD 20/12 Q1016=

TAF

SHRABRTCU

EKYT 170812Z 1709/1806 15012KT 9999 SCT200 TEMPO 1709/1715 15015G25KT BECMG 1715/1718 13012G22KT 4000 RA BKN008 BKN040 TEMPO 1718/1721 9999 -RA SCT008 BKN040 BECMG 1721/1723 22012KT 8000 NSW SCT012 BKN020 TEMPO 1723/1806 4000 BR -SHRA BKN008 SCT020TCU=

EKKA (09:20 UTC)

Karup Airport

METAR

EKKA 170920Z AUTO 14010KT 090V160 9999NDV SCT065/// BKN210/// 21/12 Q1015 NOSIG=

TAF

SHRABRTCU

EKKA 170812Z 1709/1806 15012KT 9999 SCT060 BKN200 BECMG 1714/1717 3000 RA BKN008 BKN040 TEMPO 1717/1719 9999 -RA SCT008 BKN040 BECMG 1719/1721 22010KT 8000 NSW SCT012 BKN020 TEMPO 1721/1806 3000 BR -SHRA BKN006 SCT020TCU=

EKBI (08:50 UTC)

Billund Airport

METAR

EKBI 170850Z AUTO 13012KT 100V160 9999NDV NCD 20/13 Q1016=

TAF

RABR

EKBI 170511Z 1706/1806 VRB03KT 9999 SCT030 BECMG 1707/1710 14015KT BECMG 1714/1716 3000 RA BKN008 TEMPO 1716/1718 9999 -RA BKN040 BECMG 1718/1720 21010KT 9999 NSW BKN015 TEMPO 1720/1806 2000 BR BKN004=

EKVD (08:50 UTC)

Kolding Airport

METAR

EKVD 170850Z 14013KT CAVOK 20/14 Q1016=

TAF

RA

EKVD 170857Z 1709/1716 13012KT CAVOK BECMG 1711/1714 9000 -RADZ BKN020 TEMPO 1714/1716 4000 RADZ BKN012=

EKOD (08:50 UTC)

Odense Airport

METAR

EKOD 170850Z 13010KT 090V170 CAVOK 21/15 Q1017=

TAF

RA

EKOD 170857Z 1709/1718 13012KT CAVOK BECMG 1712/1715 9000 -RADZ BKN020 TEMPO 1715/1718 4000 RADZ BKN012=

EKCH (08:50 UTC)

Copenhagen Airport, Kastrup

METAR

EKCH 170850Z 15012KT 9999 FEW042 SCT060 BKN250 19/15 Q1019 NOSIG=

TAF

TSRABRCB

EKCH 170502Z 1706/1806 15003KT 9999 SCT030 BECMG 1707/1710 15012KT BECMG 1716/1718 4000 RA BKN012 PROB40 1716/1722 TSRA TEMPO 1718/1722 8000 -RA SCT015CB BKN020 BECMG 1722/1724 22010KT 9999 NSW BKN020 TEMPO 1800/1806 4000 BR BKN008=

EKRK (08:50 UTC)

Copenhagen Airport, Roskilde

METAR

EKRK 170850Z AUTO 13012KT 9999NDV NCD 19/15 Q1019=

TAF

RA

EKRK 170823Z 1709/1718 14015KT CAVOK BECMG 1716/1718 9999 -RA BKN020=

ENRY (08:50 UTC)

Moss flygplats, Rygge

METAR

ENRY 170850Z 19010KT 160V230 9999 BKN019 18/13 Q1018 NOSIG=

TAF

SHRABRCB

ENRY 170500Z 1706/1806 20010KT 9999 FEW030 BECMG 1720/1722 13010KT TEMPO 1723/1802 4000 SHRA BKN009 SCT030CB BECMG 1801/1803 20008KT 4000 BR BKN008 TEMPO 1801/1806 1200 BR BKN002=

ENGM (08:50 UTC)

Oslo flygplats, Gardermoen

METAR

ENGM 170850Z 19007KT 160V220 9999 FEW018 SCT220 16/11 Q1017 NOSIG=

TAF

RABR

ENGM 170500Z 1706/1806 17010KT 9999 FEW040 PROB40 TEMPO 1706/1707 BKN012 BECMG 1720/1722 05008KT TEMPO 1800/1805 2000 RA BR BKN012 BECMG 1805/1806 17010KT 4000 BR BKN008=

ENTO (08:50 UTC)

Sandefjord flygplats, Torp

METAR

ENTO 170850Z 17011KT 9999 SCT018 17/13 Q1017=

TAF

SHRABRCB

ENTO 170500Z 1706/1806 20010KT 9999 FEW030 BECMG 1718/1720 14010KT BKN012 TEMPO 1719/1801 4000 SHRA BKN009 SCT030CB BECMG 1800/1802 20008KT 4000 BR BKN008 TEMPO 1801/1806 1200 BR BKN002=

ENCN (08:50 UTC)

Kristiansand flygplats, Kjevik

METAR

ENCN 170850Z 10006KT 9999 FEW008 BKN047 16/13 Q1015=

TAF

SHRABRCB

ENCN 170800Z 1709/1718 10010KT 9999 -SHRA SCT020 BKN030 BECMG 1714/1716 BKN012 TEMPO 1714/1718 4000 SHRA BR BKN008 SCT020CB=

ENZV (08:50 UTC)

Stavanger-Sola flygplats

METAR

ENZV 170850Z 15015KT 130V190 9999 FEW023 SCT028 BKN035 17/13 Q1010 TEMPO 16018G28KT=

TAF

SHRABRCB

ENZV 170500Z 1706/1806 14015KT 9999 -RA FEW020 BKN035 TEMPO 1706/1715 16018G28KT TEMPO 1709/1719 SHRA SCT025CB PROB30 1712/1719 4000 BKN012 PROB40 1719/1806 2000 BR BKN004=

ENHD (08:50 UTC)

Haugesund flygplats, Karmøy

METAR

ENHD 170850Z 15020KT 9999 SCT025 BKN120 18/13 Q1009=

TAF

TSSHRACB

ENHD 170800Z 1709/1718 14020G30KT 9999 -RA FEW015 BKN030 TEMPO 1709/1718 15008KT SHRA BKN014 SCT025CB PROB30 TEMPO 1716/1718 TS=

ENBR (08:50 UTC)

Bergen flygplats, Flesland

METAR

ENBR 170850Z 14017G28KT 9999 SCT035 BKN130 18/10 Q1009 NOSIG RMK WIND 1200FT 13033KT=

TAF

SHRABRCB

ENBR 170500Z 1706/1806 15015KT 9999 -RA FEW020 BKN045 TEMPO 1706/1718 15020G32KT TEMPO 1711/1718 SHRA SCT020CB PROB30 1714/1720 4000 SCT008 BKN012 BECMG 1715/1718 15005KT PROB40 1720/1806 2500 RADZ BR BKN006=

ENBL (08:50 UTC)

Førde flygplats, Bringeland

METAR

ENBL 170850Z 16008KT 120V2000 9999 SCT046 BKN120 16/07 Q1010=

TAF

Ingen TAF hittades.

ENOV (08:50 UTC)

Ørsta-Volda flygplats, Hovden

METAR

ENOV 170850Z VRB06KT CAVOK 18/05 Q1009 RMK WIND 2175FT 15017KT=

TAF

Ingen TAF hittades.

ENML (08:50 UTC)

Molde flygplats, Årø

METAR

SHRA

ENML 170850Z 07006KT 020V110 9999 -SHRA FEW050 BKN110 14/12 Q1010=

TAF

ENML 170800Z 1709/1718 06008KT 9999 FEW010 BKN070=

ENKB (08:50 UTC)

Kristiansund flygplats, Kvernberget

METAR

ENKB 170850Z 11006KT 070V140 CAVOK 17/09 Q1010 RMK WIND 745FT 13012KT=

TAF

ENKB 170800Z 1709/1718 10007KT CAVOK=

ENRO (08:50 UTC)

Røros flygplats

METAR

ENRO 170850Z 14013KT 120V180 CAVOK 15/08 Q1015=

TAF

ENRO 170800Z 1709/1718 16012KT CAVOK=

ENVA (08:50 UTC)

Trondheim flygplats, Værnes

METAR

ENVA 170850Z 14008KT 100V170 CAVOK 19/08 Q1012 TEMPO 15012G22KT RMK WIND 670FT 16012KT=

TAF

ENVA 170500Z 1706/1806 12007KT 9999 FEW040 SCT080 TEMPO 1709/1724 17015G25KT=

ENOL (08:50 UTC)

Ørland flygplats

METAR

ENOL 170850Z 14012KT CAVOK 15/11 Q1011 NOSIG=

TAF

ENOL 170500Z 1706/1806 12012KT 9999 FEW012 SCT150 BECMG 1711/1714 VRB07KT BECMG 1718/1721 14015KT=

ENRM (08:50 UTC)

Rørvik flygplats, Ryum

METAR

ENRM 170850Z 10009KT CAVOK 17/10 Q1013=

TAF

Ingen TAF hittades.

ENBN (08:50 UTC)

Brønnøysund flygplats, Brønnøy

METAR

ENBN 170850Z 10010KT CAVOK 18/11 Q1014=

TAF

ENBN 170800Z 1709/1718 07008KT CAVOK TEMPO 1709/1718 13015KT=

ENBO (08:50 UTC)

Bodö flygplats

METAR

ENBO 170850Z 22006KT 170V240 9999 FEW020 SCT040 15/10 Q1015 NOSIG=

TAF

SHRACBTCU

ENBO 170500Z 1706/1806 23012KT 9999 -SHRA FEW020TCU BKN040 TEMPO 1706/1710 SHRA SCT020CB BECMG 1707/1709 VRB05KT BECMG 1716/1718 09010KT=

ENSH (08:50 UTC)

Svolvær flygplats, Helle

METAR

SHRA

ENSH 170850Z 21012KT 9999 VCSH FEW008 SCT015 14/11 Q1012 RMK WIND 150FT 20020KT=

TAF

ENSH 170800Z 1709/1718 22008KT 9999 FEW010 TEMPO 1709/1712 BKN014=

ENAN (08:50 UTC)

Andøya flygplats

METAR

SHRA

ENAN 170850Z 25018G29KT 9999 VCSH SCT017 BKN026 13/10 Q1012=

TAF

SHRATCU

ENAN 170500Z 1706/1806 25016KT 9999 -RA FEW010 BKN030 TEMPO 1706/1712 25020G30KT SHRA BKN012TCU BECMG 1714/1717 10008KT=

ENEV (08:50 UTC)

Harstad-Narvik flygplats

METAR

ENEV 170850Z 24010KT 200V280 9999 FEW015 SCT022 BKN045 13/13 Q1014 RMK WIND 1400FT 24024KT=

TAF

SHRA

ENEV 170800Z 1709/1718 21012KT 9999 -SHRA FEW015 BKN030=

ENDU (08:50 UTC)

Bardufoss flygplats

METAR

ENDU 170850Z 20009KT 180V240 9999 FEW020 SCT040 BKN070 14/10 Q1012 NOSIG RMK WIND 1100FT 23012KT WIND 2200FT 23018KT=

TAF

RA

ENDU 170500Z 1706/1806 VRB05KT 9999 -RA FEW030 BKN050 TEMPO 1706/1714 22010KT=

ENTC (08:50 UTC)

Tromsø flygplats

METAR

ENTC 170850Z 24007KT 9999 FEW020 SCT028 BKN039 11/10 Q1012 TEMPO SHRA BKN014TCU RMK WIND 2600FT 25023KT=

TAF

SHRATCU

ENTC 170500Z 1706/1806 22010KT 9999 -RA FEW010 BKN030 TEMPO 1706/1712 22020KT SHRA BKN014TCU BECMG 1715/1718 VRB05KT=

ENAT (08:50 UTC)

Alta flygplats

METAR

ENAT 170850Z 21006KT 9999 FEW026 BKN048 13/09 Q1009 RMK WIND 700FT 24010KT=

TAF

SHRA

ENAT 170800Z 1709/1718 24008KT 9999 FEW015 BKN030 TEMPO 1709/1718 28015G25KT SHRA=

ENNA (08:50 UTC)

Lakselv flygplats

METAR

RA

ENNA 170850Z 23007KT 170V270 9999 -RA FEW031 BKN070 14/08 Q1009 RMK WIND 1800FT 28028KT=

TAF

ENNA 170500Z 1706/1806 18008KT 9999 FEW020 BKN050 TEMPO 1712/1721 26015G25KT=

ENHF (08:50 UTC)

Hammerfest flygplats

METAR

ENHF 170850Z 24019KT 9999 SCT018 BKN022 11/08 Q1008 RMK WIND 1254FT 27028KT=

TAF

SHRA

ENHF 170800Z 1709/1718 24015KT 9999 FEW010 BKN025 TEMPO 1709/1718 4000 SHRA BKN008 TEMPO 1712/1718 24025G35KT TEMPO 1715/1718 VRB08G20KT=

ENKR (08:50 UTC)

Kirkenes Airport, Høybuktmoen

METAR

ENKR 170850Z 23010KT 9999 SCT014 BKN023 14/11 Q1008 RMK WIND 731FT /////KT=

TAF

SHRATCU

ENKR 170800Z 1709/1718 24008KT 9999 -SHRA FEW010TCU BKN030 TEMPO 1709/1718 27020KT=

ENLK (08:50 UTC)

Leknes Airport

METAR

ENLK 170850Z 15005KT 9999 SCT030 14/10 Q1013=

TAF

Ingen TAF hittades.

ENNO (08:50 UTC)

Notodden Airport, Tuven

METAR

ENNO 170850Z 11007KT 9999 SCT050 15/11 Q1016=

TAF

ENNO 170800Z 1709/1717 13005KT 9999 SCT030 BKN050=

ENST (08:50 UTC)

Sandnessjøen Airport, Stokka

METAR

ENST 170850Z VRB05KT CAVOK 17/09 Q1014 RMK WIND 300FT 15009KT=

TAF

Ingen TAF hittades.

ENSB (08:50 UTC)

Svalbard Airport, Longyear

METAR

ENSB 170850Z 27015KT 9999 BKN039 04/M03 Q1012 NOSIG RMK WIND 1400FT 27013KT=

TAF

ENSB 170500Z 1706/1806 27018KT 9999 FEW015 BKN030 TEMPO 1706/1806 26008KT=

ENSK (08:50 UTC)

Stokmarknes Airport, Skagen

METAR

SHRA

ENSK 170850Z 27007KT 9999 VCSH FEW013 SCT030 BKN040 14/10 Q1014=

TAF

Ingen TAF hittades.

ENSR (08:50 UTC)

Sørkjosen Airport

METAR

SHRA

ENSR 170850Z VRB05KT 9999 VCSH SCT040 SCT060 17/09 Q1010 WIND 1119FT 25013KT=

TAF

Ingen TAF hittades.

ENNM (08:50 UTC)

Namsos Airport, Høknesøra

METAR

ENNM 170850Z 07010KT CAVOK 17/12 Q1012=

TAF

Ingen TAF hittades.